sensor_id;sensor_type;location;lat;lon;timestamp;P1;durP1;ratioP1;P2;durP2;ratioP2
40122;SDS011;25832;45.490;4.912;2023-01-28T00:01:07;27.50;;;14.48;;
40122;SDS011;25832;45.490;4.912;2023-01-28T00:03:33;27.77;;;14.65;;
40122;SDS011;25832;45.490;4.912;2023-01-28T00:06:05;27.65;;;13.32;;
40122;SDS011;25832;45.490;4.912;2023-01-28T00:08:38;26.35;;;12.93;;
40122;SDS011;25832;45.490;4.912;2023-01-28T00:11:05;27.13;;;13.25;;
40122;SDS011;25832;45.490;4.912;2023-01-28T00:13:32;29.02;;;13.68;;
40122;SDS011;25832;45.490;4.912;2023-01-28T00:15:59;33.22;;;16.58;;
40122;SDS011;25832;45.490;4.912;2023-01-28T00:18:29;30.63;;;12.73;;
40122;SDS011;25832;45.490;4.912;2023-01-28T00:21:05;24.70;;;13.77;;
40122;SDS011;25832;45.490;4.912;2023-01-28T00:23:35;29.58;;;13.05;;
40122;SDS011;25832;45.490;4.912;2023-01-28T00:26:02;27.83;;;12.95;;
40122;SDS011;25832;45.490;4.912;2023-01-28T00:28:30;25.92;;;13.82;;
40122;SDS011;25832;45.490;4.912;2023-01-28T00:30:56;25.35;;;13.27;;
40122;SDS011;25832;45.490;4.912;2023-01-28T00:33:22;26.30;;;12.60;;
40122;SDS011;25832;45.490;4.912;2023-01-28T00:36:01;24.40;;;13.40;;
40122;SDS011;25832;45.490;4.912;2023-01-28T00:38:27;22.58;;;12.40;;
40122;SDS011;25832;45.490;4.912;2023-01-28T00:40:53;27.05;;;13.52;;
40122;SDS011;25832;45.490;4.912;2023-01-28T00:43:20;30.85;;;14.65;;
40122;SDS011;25832;45.490;4.912;2023-01-28T00:45:46;27.98;;;13.80;;
40122;SDS011;25832;45.490;4.912;2023-01-28T00:48:11;25.58;;;13.27;;
40122;SDS011;25832;45.490;4.912;2023-01-28T00:50:37;24.42;;;12.65;;
40122;SDS011;25832;45.490;4.912;2023-01-28T00:53:04;25.08;;;13.52;;
40122;SDS011;25832;45.490;4.912;2023-01-28T00:55:29;25.50;;;13.55;;
40122;SDS011;25832;45.490;4.912;2023-01-28T00:57:55;25.67;;;12.63;;
40122;SDS011;25832;45.490;4.912;2023-01-28T01:00:21;23.65;;;12.20;;
40122;SDS011;25832;45.490;4.912;2023-01-28T01:02:50;21.73;;;11.82;;
40122;SDS011;25832;45.490;4.912;2023-01-28T01:05:16;24.77;;;13.23;;
40122;SDS011;25832;45.490;4.912;2023-01-28T01:07:42;23.55;;;11.70;;
40122;SDS011;25832;45.490;4.912;2023-01-28T01:10:12;24.88;;;13.23;;
40122;SDS011;25832;45.490;4.912;2023-01-28T01:12:40;23.85;;;12.55;;
40122;SDS011;25832;45.490;4.912;2023-01-28T01:15:06;24.80;;;12.77;;
40122;SDS011;25832;45.490;4.912;2023-01-28T01:17:34;27.70;;;13.23;;
40122;SDS011;25832;45.490;4.912;2023-01-28T01:20:05;25.17;;;12.85;;
40122;SDS011;25832;45.490;4.912;2023-01-28T01:22:33;23.42;;;12.48;;
40122;SDS011;25832;45.490;4.912;2023-01-28T01:25:00;23.95;;;12.15;;
40122;SDS011;25832;45.490;4.912;2023-01-28T01:27:27;30.00;;;13.27;;
40122;SDS011;25832;45.490;4.912;2023-01-28T01:29:54;26.40;;;12.30;;
40122;SDS011;25832;45.490;4.912;2023-01-28T01:32:19;22.15;;;12.70;;
40122;SDS011;25832;45.490;4.912;2023-01-28T01:34:46;20.98;;;11.63;;
40122;SDS011;25832;45.490;4.912;2023-01-28T01:37:12;23.98;;;11.93;;
40122;SDS011;25832;45.490;4.912;2023-01-28T01:39:38;19.20;;;12.30;;
40122;SDS011;25832;45.490;4.912;2023-01-28T01:42:04;26.67;;;13.30;;
40122;SDS011;25832;45.490;4.912;2023-01-28T01:44:51;22.35;;;12.27;;
40122;SDS011;25832;45.490;4.912;2023-01-28T01:47:24;24.27;;;12.50;;
40122;SDS011;25832;45.490;4.912;2023-01-28T01:49:52;25.30;;;12.93;;
40122;SDS011;25832;45.490;4.912;2023-01-28T01:52:21;22.75;;;12.70;;
40122;SDS011;25832;45.490;4.912;2023-01-28T01:54:52;23.42;;;12.48;;
40122;SDS011;25832;45.490;4.912;2023-01-28T01:57:23;20.50;;;12.32;;
40122;SDS011;25832;45.490;4.912;2023-01-28T01:59:53;24.85;;;11.57;;
40122;SDS011;25832;45.490;4.912;2023-01-28T02:02:20;20.75;;;11.65;;
40122;SDS011;25832;45.490;4.912;2023-01-28T02:04:46;24.77;;;12.80;;
40122;SDS011;25832;45.490;4.912;2023-01-28T02:07:13;23.10;;;12.43;;
40122;SDS011;25832;45.490;4.912;2023-01-28T02:09:40;23.13;;;12.43;;
40122;SDS011;25832;45.490;4.912;2023-01-28T02:12:20;22.83;;;12.18;;
40122;SDS011;25832;45.490;4.912;2023-01-28T02:15:11;25.48;;;13.25;;
40122;SDS011;25832;45.490;4.912;2023-01-28T02:17:42;22.38;;;12.13;;
40122;SDS011;25832;45.490;4.912;2023-01-28T02:20:09;22.90;;;12.65;;
40122;SDS011;25832;45.490;4.912;2023-01-28T02:22:44;18.40;;;11.20;;
40122;SDS011;25832;45.490;4.912;2023-01-28T02:28:45;21.40;;;12.52;;
40122;SDS011;25832;45.490;4.912;2023-01-28T02:37:01;24.13;;;11.50;;
40122;SDS011;25832;45.490;4.912;2023-01-28T02:39:35;25.52;;;12.02;;
40122;SDS011;25832;45.490;4.912;2023-01-28T02:42:05;22.95;;;13.25;;
40122;SDS011;25832;45.490;4.912;2023-01-28T02:44:35;23.58;;;13.30;;
40122;SDS011;25832;45.490;4.912;2023-01-28T02:47:00;22.02;;;12.48;;
40122;SDS011;25832;45.490;4.912;2023-01-28T02:49:51;24.70;;;12.70;;
40122;SDS011;25832;45.490;4.912;2023-01-28T02:52:31;23.33;;;12.73;;
40122;SDS011;25832;45.490;4.912;2023-01-28T03:06:44;23.25;;;12.32;;
40122;SDS011;25832;45.490;4.912;2023-01-28T03:09:14;22.05;;;11.25;;
40122;SDS011;25832;45.490;4.912;2023-01-28T03:12:10;21.63;;;11.98;;
40122;SDS011;25832;45.490;4.912;2023-01-28T03:15:28;18.55;;;11.70;;
40122;SDS011;25832;45.490;4.912;2023-01-28T03:18:27;24.17;;;12.32;;
40122;SDS011;25832;45.490;4.912;2023-01-28T03:21:37;20.27;;;12.23;;
40122;SDS011;25832;45.490;4.912;2023-01-28T03:24:25;20.10;;;11.50;;
40122;SDS011;25832;45.490;4.912;2023-01-28T03:27:18;21.30;;;11.50;;
40122;SDS011;25832;45.490;4.912;2023-01-28T03:30:31;20.48;;;11.95;;
40122;SDS011;25832;45.490;4.912;2023-01-28T03:33:20;21.80;;;11.27;;
40122;SDS011;25832;45.490;4.912;2023-01-28T03:36:06;27.40;;;12.02;;
40122;SDS011;25832;45.490;4.912;2023-01-28T03:38:51;23.23;;;12.25;;
40122;SDS011;25832;45.490;4.912;2023-01-28T03:41:21;22.42;;;13.10;;
40122;SDS011;25832;45.490;4.912;2023-01-28T03:43:49;26.33;;;12.68;;
40122;SDS011;25832;45.490;4.912;2023-01-28T03:46:16;23.05;;;13.32;;
40122;SDS011;25832;45.490;4.912;2023-01-28T03:48:42;22.60;;;11.98;;
40122;SDS011;25832;45.490;4.912;2023-01-28T03:51:08;22.98;;;12.55;;
40122;SDS011;25832;45.490;4.912;2023-01-28T03:53:34;22.15;;;12.32;;
40122;SDS011;25832;45.490;4.912;2023-01-28T03:56:01;21.55;;;11.68;;
40122;SDS011;25832;45.490;4.912;2023-01-28T03:58:27;24.05;;;11.60;;
40122;SDS011;25832;45.490;4.912;2023-01-28T04:01:17;22.85;;;12.57;;
40122;SDS011;25832;45.490;4.912;2023-01-28T04:03:44;26.17;;;11.95;;
40122;SDS011;25832;45.490;4.912;2023-01-28T04:06:09;21.13;;;11.32;;
40122;SDS011;25832;45.490;4.912;2023-01-28T04:08:35;22.90;;;12.63;;
40122;SDS011;25832;45.490;4.912;2023-01-28T04:11:01;24.55;;;13.10;;
40122;SDS011;25832;45.490;4.912;2023-01-28T04:13:44;22.58;;;12.18;;
40122;SDS011;25832;45.490;4.912;2023-01-28T04:16:12;22.75;;;12.65;;
40122;SDS011;25832;45.490;4.912;2023-01-28T04:18:39;22.63;;;12.45;;
40122;SDS011;25832;45.490;4.912;2023-01-28T04:21:04;23.60;;;12.55;;
40122;SDS011;25832;45.490;4.912;2023-01-28T04:23:30;22.42;;;12.90;;
40122;SDS011;25832;45.490;4.912;2023-01-28T04:25:56;21.40;;;12.20;;
40122;SDS011;25832;45.490;4.912;2023-01-28T04:28:22;20.73;;;11.45;;
40122;SDS011;25832;45.490;4.912;2023-01-28T04:30:47;23.88;;;12.70;;
40122;SDS011;25832;45.490;4.912;2023-01-28T04:33:13;22.90;;;12.07;;
40122;SDS011;25832;45.490;4.912;2023-01-28T04:35:39;22.85;;;12.10;;
40122;SDS011;25832;45.490;4.912;2023-01-28T04:38:05;19.42;;;11.75;;
40122;SDS011;25832;45.490;4.912;2023-01-28T04:40:30;26.48;;;13.10;;
40122;SDS011;25832;45.490;4.912;2023-01-28T04:42:56;25.05;;;13.68;;
40122;SDS011;25832;45.490;4.912;2023-01-28T04:45:22;18.30;;;12.02;;
40122;SDS011;25832;45.490;4.912;2023-01-28T04:47:48;18.25;;;11.02;;
40122;SDS011;25832;45.490;4.912;2023-01-28T04:50:14;19.60;;;11.05;;
40122;SDS011;25832;45.490;4.912;2023-01-28T04:52:40;21.02;;;11.65;;
40122;SDS011;25832;45.490;4.912;2023-01-28T04:55:06;21.02;;;10.98;;
40122;SDS011;25832;45.490;4.912;2023-01-28T04:57:33;23.02;;;12.80;;
40122;SDS011;25832;45.490;4.912;2023-01-28T04:59:58;22.00;;;11.80;;
40122;SDS011;25832;45.490;4.912;2023-01-28T05:02:24;22.80;;;12.50;;
40122;SDS011;25832;45.490;4.912;2023-01-28T05:04:50;21.10;;;11.68;;
40122;SDS011;25832;45.490;4.912;2023-01-28T05:07:15;17.15;;;11.27;;
40122;SDS011;25832;45.490;4.912;2023-01-28T05:09:41;24.10;;;12.25;;
40122;SDS011;25832;45.490;4.912;2023-01-28T05:12:06;23.10;;;12.88;;
40122;SDS011;25832;45.490;4.912;2023-01-28T05:14:32;19.17;;;11.75;;
40122;SDS011;25832;45.490;4.912;2023-01-28T05:16:58;24.60;;;12.77;;
40122;SDS011;25832;45.490;4.912;2023-01-28T05:19:24;20.23;;;12.00;;
40122;SDS011;25832;45.490;4.912;2023-01-28T05:21:49;20.80;;;12.48;;
40122;SDS011;25832;45.490;4.912;2023-01-28T05:24:15;24.92;;;12.90;;
40122;SDS011;25832;45.490;4.912;2023-01-28T05:26:41;21.13;;;12.15;;
40122;SDS011;25832;45.490;4.912;2023-01-28T05:29:06;21.00;;;11.25;;
40122;SDS011;25832;45.490;4.912;2023-01-28T05:31:32;20.80;;;11.43;;
40122;SDS011;25832;45.490;4.912;2023-01-28T05:33:58;22.33;;;12.82;;
40122;SDS011;25832;45.490;4.912;2023-01-28T05:36:23;21.10;;;12.05;;
40122;SDS011;25832;45.490;4.912;2023-01-28T05:38:49;21.15;;;12.90;;
40122;SDS011;25832;45.490;4.912;2023-01-28T05:41:16;22.27;;;12.18;;
40122;SDS011;25832;45.490;4.912;2023-01-28T05:43:41;22.85;;;12.73;;
40122;SDS011;25832;45.490;4.912;2023-01-28T05:46:07;26.42;;;12.98;;
40122;SDS011;25832;45.490;4.912;2023-01-28T05:48:33;23.15;;;13.18;;
40122;SDS011;25832;45.490;4.912;2023-01-28T05:50:58;20.33;;;12.30;;
40122;SDS011;25832;45.490;4.912;2023-01-28T05:53:24;21.98;;;12.65;;
40122;SDS011;25832;45.490;4.912;2023-01-28T05:55:51;24.48;;;12.80;;
40122;SDS011;25832;45.490;4.912;2023-01-28T05:58:20;24.35;;;12.80;;
40122;SDS011;25832;45.490;4.912;2023-01-28T06:00:45;20.15;;;12.15;;
40122;SDS011;25832;45.490;4.912;2023-01-28T06:03:11;22.65;;;13.80;;
40122;SDS011;25832;45.490;4.912;2023-01-28T06:05:37;22.70;;;12.73;;
40122;SDS011;25832;45.490;4.912;2023-01-28T06:08:04;22.85;;;11.35;;
40122;SDS011;25832;45.490;4.912;2023-01-28T06:10:30;21.48;;;11.70;;
40122;SDS011;25832;45.490;4.912;2023-01-28T06:12:56;24.80;;;13.05;;
40122;SDS011;25832;45.490;4.912;2023-01-28T06:15:22;19.80;;;11.43;;
40122;SDS011;25832;45.490;4.912;2023-01-28T06:17:48;24.70;;;13.68;;
40122;SDS011;25832;45.490;4.912;2023-01-28T06:20:14;25.02;;;12.13;;
40122;SDS011;25832;45.490;4.912;2023-01-28T06:22:41;23.73;;;11.80;;
40122;SDS011;25832;45.490;4.912;2023-01-28T06:25:07;21.65;;;12.13;;
40122;SDS011;25832;45.490;4.912;2023-01-28T06:27:33;23.33;;;11.57;;
40122;SDS011;25832;45.490;4.912;2023-01-28T06:29:59;23.00;;;13.38;;
40122;SDS011;25832;45.490;4.912;2023-01-28T06:32:25;21.05;;;12.38;;
40122;SDS011;25832;45.490;4.912;2023-01-28T06:34:51;20.52;;;11.48;;
40122;SDS011;25832;45.490;4.912;2023-01-28T06:37:17;24.60;;;12.48;;
40122;SDS011;25832;45.490;4.912;2023-01-28T06:39:43;19.20;;;10.50;;
40122;SDS011;25832;45.490;4.912;2023-01-28T06:42:08;19.83;;;10.80;;
40122;SDS011;25832;45.490;4.912;2023-01-28T06:44:34;18.85;;;11.02;;
40122;SDS011;25832;45.490;4.912;2023-01-28T06:47:00;20.65;;;10.88;;
40122;SDS011;25832;45.490;4.912;2023-01-28T06:49:25;21.45;;;12.13;;
40122;SDS011;25832;45.490;4.912;2023-01-28T06:51:51;20.90;;;12.02;;
40122;SDS011;25832;45.490;4.912;2023-01-28T06:54:17;23.27;;;12.10;;
40122;SDS011;25832;45.490;4.912;2023-01-28T06:56:42;22.55;;;12.23;;
40122;SDS011;25832;45.490;4.912;2023-01-28T06:59:08;19.50;;;12.05;;
40122;SDS011;25832;45.490;4.912;2023-01-28T07:01:34;19.60;;;11.55;;
40122;SDS011;25832;45.490;4.912;2023-01-28T07:03:59;21.52;;;11.30;;
40122;SDS011;25832;45.490;4.912;2023-01-28T07:06:25;17.23;;;11.10;;
40122;SDS011;25832;45.490;4.912;2023-01-28T07:08:52;20.20;;;10.88;;
40122;SDS011;25832;45.490;4.912;2023-01-28T07:11:17;20.98;;;10.85;;
40122;SDS011;25832;45.490;4.912;2023-01-28T07:13:43;20.10;;;11.85;;
40122;SDS011;25832;45.490;4.912;2023-01-28T07:16:09;19.85;;;10.70;;
40122;SDS011;25832;45.490;4.912;2023-01-28T07:18:34;19.90;;;11.10;;
40122;SDS011;25832;45.490;4.912;2023-01-28T07:21:00;22.02;;;11.30;;
40122;SDS011;25832;45.490;4.912;2023-01-28T07:23:26;19.92;;;10.07;;
40122;SDS011;25832;45.490;4.912;2023-01-28T07:25:52;18.00;;;10.77;;
40122;SDS011;25832;45.490;4.912;2023-01-28T07:28:17;19.08;;;10.55;;
40122;SDS011;25832;45.490;4.912;2023-01-28T07:30:51;24.73;;;11.38;;
40122;SDS011;25832;45.490;4.912;2023-01-28T07:33:17;16.23;;;10.00;;
40122;SDS011;25832;45.490;4.912;2023-01-28T07:35:43;21.30;;;11.57;;
40122;SDS011;25832;45.490;4.912;2023-01-28T07:38:10;18.67;;;10.10;;
40122;SDS011;25832;45.490;4.912;2023-01-28T07:40:36;22.88;;;11.43;;
40122;SDS011;25832;45.490;4.912;2023-01-28T07:43:02;21.80;;;10.35;;
40122;SDS011;25832;45.490;4.912;2023-01-28T07:45:27;19.65;;;10.60;;
40122;SDS011;25832;45.490;4.912;2023-01-28T07:47:55;18.13;;;10.82;;
40122;SDS011;25832;45.490;4.912;2023-01-28T07:50:22;21.90;;;11.20;;
40122;SDS011;25832;45.490;4.912;2023-01-28T07:52:48;19.88;;;11.30;;
40122;SDS011;25832;45.490;4.912;2023-01-28T07:55:14;21.08;;;11.40;;
40122;SDS011;25832;45.490;4.912;2023-01-28T07:57:53;21.33;;;11.40;;
40122;SDS011;25832;45.490;4.912;2023-01-28T08:00:21;20.23;;;10.25;;
40122;SDS011;25832;45.490;4.912;2023-01-28T08:02:48;21.50;;;11.85;;
40122;SDS011;25832;45.490;4.912;2023-01-28T08:05:17;21.92;;;10.75;;
40122;SDS011;25832;45.490;4.912;2023-01-28T08:10:12;26.52;;;12.20;;
40122;SDS011;25832;45.490;4.912;2023-01-28T08:12:38;19.40;;;11.40;;
40122;SDS011;25832;45.490;4.912;2023-01-28T08:15:04;19.13;;;11.98;;
40122;SDS011;25832;45.490;4.912;2023-01-28T08:17:31;19.95;;;11.38;;
40122;SDS011;25832;45.490;4.912;2023-01-28T08:19:57;25.73;;;12.13;;
40122;SDS011;25832;45.490;4.912;2023-01-28T08:22:26;24.45;;;11.48;;
40122;SDS011;25832;45.490;4.912;2023-01-28T08:24:52;21.08;;;11.45;;
40122;SDS011;25832;45.490;4.912;2023-01-28T08:27:17;21.10;;;12.10;;
40122;SDS011;25832;45.490;4.912;2023-01-28T08:29:43;23.30;;;13.02;;
40122;SDS011;25832;45.490;4.912;2023-01-28T08:32:09;22.90;;;11.20;;
40122;SDS011;25832;45.490;4.912;2023-01-28T08:34:35;20.83;;;11.65;;
40122;SDS011;25832;45.490;4.912;2023-01-28T08:37:01;24.23;;;11.43;;
40122;SDS011;25832;45.490;4.912;2023-01-28T08:39:26;19.52;;;11.60;;
40122;SDS011;25832;45.490;4.912;2023-01-28T08:41:52;22.42;;;11.23;;
40122;SDS011;25832;45.490;4.912;2023-01-28T08:44:18;18.90;;;10.25;;
40122;SDS011;25832;45.490;4.912;2023-01-28T08:46:43;20.38;;;10.98;;
40122;SDS011;25832;45.490;4.912;2023-01-28T08:49:09;19.13;;;11.10;;
40122;SDS011;25832;45.490;4.912;2023-01-28T08:51:35;22.08;;;11.68;;
40122;SDS011;25832;45.490;4.912;2023-01-28T08:54:00;23.70;;;11.25;;
40122;SDS011;25832;45.490;4.912;2023-01-28T08:56:26;25.95;;;12.38;;
40122;SDS011;25832;45.490;4.912;2023-01-28T08:58:52;19.60;;;10.65;;
40122;SDS011;25832;45.490;4.912;2023-01-28T09:01:17;22.77;;;11.40;;
40122;SDS011;25832;45.490;4.912;2023-01-28T09:03:43;22.77;;;11.82;;
40122;SDS011;25832;45.490;4.912;2023-01-28T09:06:09;17.73;;;11.52;;
40122;SDS011;25832;45.490;4.912;2023-01-28T09:08:34;21.52;;;12.23;;
40122;SDS011;25832;45.490;4.912;2023-01-28T09:11:00;21.70;;;12.05;;
40122;SDS011;25832;45.490;4.912;2023-01-28T09:13:26;22.52;;;12.38;;
40122;SDS011;25832;45.490;4.912;2023-01-28T09:15:52;23.23;;;11.88;;
40122;SDS011;25832;45.490;4.912;2023-01-28T09:18:18;25.10;;;12.52;;
40122;SDS011;25832;45.490;4.912;2023-01-28T09:20:44;27.58;;;12.55;;
40122;SDS011;25832;45.490;4.912;2023-01-28T09:23:09;23.98;;;12.00;;
40122;SDS011;25832;45.490;4.912;2023-01-28T09:25:36;24.50;;;13.25;;
40122;SDS011;25832;45.490;4.912;2023-01-28T09:28:02;26.15;;;14.40;;
40122;SDS011;25832;45.490;4.912;2023-01-28T09:30:28;22.38;;;12.73;;
40122;SDS011;25832;45.490;4.912;2023-01-28T09:32:54;22.60;;;11.93;;
40122;SDS011;25832;45.490;4.912;2023-01-28T09:35:22;23.70;;;12.70;;
40122;SDS011;25832;45.490;4.912;2023-01-28T09:37:48;29.52;;;12.30;;
40122;SDS011;25832;45.490;4.912;2023-01-28T09:40:15;22.48;;;13.15;;
40122;SDS011;25832;45.490;4.912;2023-01-28T09:45:42;25.58;;;12.82;;
40122;SDS011;25832;45.490;4.912;2023-01-28T09:48:20;23.50;;;12.15;;
40122;SDS011;25832;45.490;4.912;2023-01-28T09:50:50;20.70;;;11.80;;
40122;SDS011;25832;45.490;4.912;2023-01-28T09:53:27;22.70;;;12.82;;
40122;SDS011;25832;45.490;4.912;2023-01-28T09:56:00;21.02;;;11.93;;
40122;SDS011;25832;45.490;4.912;2023-01-28T09:58:28;20.92;;;11.55;;
40122;SDS011;25832;45.490;4.912;2023-01-28T10:06:07;24.40;;;12.50;;
40122;SDS011;25832;45.490;4.912;2023-01-28T10:16:39;21.70;;;11.90;;
40122;SDS011;25832;45.490;4.912;2023-01-28T10:21:58;22.65;;;11.82;;
40122;SDS011;25832;45.490;4.912;2023-01-28T10:24:56;20.88;;;11.85;;
40122;SDS011;25832;45.490;4.912;2023-01-28T10:27:30;20.00;;;11.80;;
40122;SDS011;25832;45.490;4.912;2023-01-28T10:30:08;20.88;;;11.15;;
40122;SDS011;25832;45.490;4.912;2023-01-28T10:32:46;20.00;;;11.05;;
40122;SDS011;25832;45.490;4.912;2023-01-28T10:35:16;26.63;;;13.48;;
40122;SDS011;25832;45.490;4.912;2023-01-28T10:37:42;22.02;;;11.60;;
40122;SDS011;25832;45.490;4.912;2023-01-28T10:40:16;17.20;;;11.07;;
40122;SDS011;25832;45.490;4.912;2023-01-28T10:42:43;19.58;;;10.65;;
40122;SDS011;25832;45.490;4.912;2023-01-28T10:47:50;18.65;;;10.80;;
40122;SDS011;25832;45.490;4.912;2023-01-28T10:50:26;17.92;;;10.02;;
40122;SDS011;25832;45.490;4.912;2023-01-28T10:52:54;17.85;;;10.05;;
40122;SDS011;25832;45.490;4.912;2023-01-28T10:55:26;25.52;;;12.68;;
40122;SDS011;25832;45.490;4.912;2023-01-28T10:58:01;17.63;;;10.82;;
40122;SDS011;25832;45.490;4.912;2023-01-28T11:00:30;21.58;;;13.20;;
40122;SDS011;25832;45.490;4.912;2023-01-28T11:03:01;21.52;;;11.05;;
40122;SDS011;25832;45.490;4.912;2023-01-28T11:05:28;23.05;;;12.50;;
40122;SDS011;25832;45.490;4.912;2023-01-28T11:10:30;21.30;;;11.98;;
40122;SDS011;25832;45.490;4.912;2023-01-28T11:12:59;22.92;;;12.43;;
40122;SDS011;25832;45.490;4.912;2023-01-28T11:15:27;23.92;;;13.52;;
40122;SDS011;25832;45.490;4.912;2023-01-28T11:17:57;20.90;;;11.35;;
40122;SDS011;25832;45.490;4.912;2023-01-28T11:20:32;19.30;;;11.43;;
40122;SDS011;25832;45.490;4.912;2023-01-28T11:23:02;20.75;;;11.93;;
40122;SDS011;25832;45.490;4.912;2023-01-28T11:25:29;21.58;;;11.15;;
40122;SDS011;25832;45.490;4.912;2023-01-28T11:27:55;17.98;;;11.15;;
40122;SDS011;25832;45.490;4.912;2023-01-28T11:30:30;20.50;;;11.68;;
40122;SDS011;25832;45.490;4.912;2023-01-28T11:37:57;19.63;;;10.32;;
40122;SDS011;25832;45.490;4.912;2023-01-28T11:40:24;22.65;;;10.68;;
40122;SDS011;25832;45.490;4.912;2023-01-28T11:42:51;20.90;;;12.07;;
40122;SDS011;25832;45.490;4.912;2023-01-28T11:45:31;21.58;;;11.38;;
40122;SDS011;25832;45.490;4.912;2023-01-28T11:51:31;19.00;;;11.27;;
40122;SDS011;25832;45.490;4.912;2023-01-28T11:54:05;16.17;;;9.68;;
40122;SDS011;25832;45.490;4.912;2023-01-28T11:59:45;20.58;;;11.20;;
40122;SDS011;25832;45.490;4.912;2023-01-28T12:07:53;22.80;;;10.13;;
40122;SDS011;25832;45.490;4.912;2023-01-28T12:13:16;18.35;;;10.43;;
40122;SDS011;25832;45.490;4.912;2023-01-28T12:29:59;17.00;;;10.27;;
40122;SDS011;25832;45.490;4.912;2023-01-28T12:35:29;18.33;;;10.55;;
40122;SDS011;25832;45.490;4.912;2023-01-28T12:38:03;18.17;;;10.73;;
40122;SDS011;25832;45.490;4.912;2023-01-28T12:43:02;20.02;;;10.68;;
40122;SDS011;25832;45.490;4.912;2023-01-28T12:45:40;15.45;;;8.98;;
40122;SDS011;25832;45.490;4.912;2023-01-28T12:48:15;15.40;;;9.20;;
40122;SDS011;25832;45.490;4.912;2023-01-28T12:50:50;16.70;;;9.35;;
40122;SDS011;25832;45.490;4.912;2023-01-28T12:53:42;17.45;;;9.50;;
40122;SDS011;25832;45.490;4.912;2023-01-28T12:58:59;19.20;;;9.73;;
40122;SDS011;25832;45.490;4.912;2023-01-28T13:10:29;15.00;;;9.50;;
40122;SDS011;25832;45.490;4.912;2023-01-28T13:13:00;17.83;;;9.45;;
40122;SDS011;25832;45.490;4.912;2023-01-28T13:15:28;14.57;;;9.25;;
40122;SDS011;25832;45.490;4.912;2023-01-28T13:17:59;13.98;;;9.00;;
40122;SDS011;25832;45.490;4.912;2023-01-28T13:20:37;17.05;;;10.07;;
40122;SDS011;25832;45.490;4.912;2023-01-28T13:23:04;15.90;;;9.35;;
40122;SDS011;25832;45.490;4.912;2023-01-28T13:25:47;15.27;;;9.07;;
40122;SDS011;25832;45.490;4.912;2023-01-28T13:28:25;22.58;;;9.88;;
40122;SDS011;25832;45.490;4.912;2023-01-28T13:31:02;14.30;;;8.95;;
40122;SDS011;25832;45.490;4.912;2023-01-28T13:33:34;14.27;;;8.77;;
40122;SDS011;25832;45.490;4.912;2023-01-28T13:36:23;16.95;;;8.88;;
40122;SDS011;25832;45.490;4.912;2023-01-28T13:39:01;17.40;;;9.80;;
40122;SDS011;25832;45.490;4.912;2023-01-28T13:41:42;15.13;;;8.90;;
40122;SDS011;25832;45.490;4.912;2023-01-28T13:46:50;13.50;;;8.60;;
40122;SDS011;25832;45.490;4.912;2023-01-28T13:49:22;15.02;;;8.88;;
40122;SDS011;25832;45.490;4.912;2023-01-28T13:51:59;17.00;;;9.15;;
40122;SDS011;25832;45.490;4.912;2023-01-28T13:54:33;16.02;;;8.98;;
40122;SDS011;25832;45.490;4.912;2023-01-28T14:13:30;16.70;;;8.88;;
40122;SDS011;25832;45.490;4.912;2023-01-28T14:18:42;12.77;;;7.95;;
40122;SDS011;25832;45.490;4.912;2023-01-28T14:21:14;15.13;;;8.25;;
40122;SDS011;25832;45.490;4.912;2023-01-28T14:23:49;14.27;;;8.15;;
40122;SDS011;25832;45.490;4.912;2023-01-28T14:31:28;14.85;;;8.75;;
40122;SDS011;25832;45.490;4.912;2023-01-28T14:34:02;14.77;;;8.10;;
40122;SDS011;25832;45.490;4.912;2023-01-28T14:36:38;15.25;;;8.65;;
40122;SDS011;25832;45.490;4.912;2023-01-28T14:39:25;18.25;;;8.80;;
40122;SDS011;25832;45.490;4.912;2023-01-28T14:41:53;13.77;;;8.27;;
40122;SDS011;25832;45.490;4.912;2023-01-28T14:44:38;13.60;;;7.50;;
40122;SDS011;25832;45.490;4.912;2023-01-28T14:47:10;15.48;;;8.38;;
40122;SDS011;25832;45.490;4.912;2023-01-28T14:58:36;11.88;;;7.75;;
40122;SDS011;25832;45.490;4.912;2023-01-28T15:01:23;14.27;;;7.40;;
40122;SDS011;25832;45.490;4.912;2023-01-28T15:03:50;11.63;;;7.75;;
40122;SDS011;25832;45.490;4.912;2023-01-28T15:06:18;14.52;;;8.27;;
40122;SDS011;25832;45.490;4.912;2023-01-28T15:08:46;13.25;;;8.07;;
40122;SDS011;25832;45.490;4.912;2023-01-28T15:11:12;14.60;;;8.27;;
40122;SDS011;25832;45.490;4.912;2023-01-28T15:13:45;14.40;;;7.15;;
40122;SDS011;25832;45.490;4.912;2023-01-28T15:16:17;17.08;;;8.07;;
40122;SDS011;25832;45.490;4.912;2023-01-28T15:18:45;14.65;;;7.82;;
40122;SDS011;25832;45.490;4.912;2023-01-28T15:21:12;14.05;;;7.15;;
40122;SDS011;25832;45.490;4.912;2023-01-28T15:23:40;11.70;;;7.25;;
40122;SDS011;25832;45.490;4.912;2023-01-28T15:26:17;14.90;;;7.63;;
40122;SDS011;25832;45.490;4.912;2023-01-28T15:28:45;13.77;;;7.63;;
40122;SDS011;25832;45.490;4.912;2023-01-28T15:31:19;15.10;;;7.43;;
40122;SDS011;25832;45.490;4.912;2023-01-28T15:33:57;12.57;;;7.32;;
40122;SDS011;25832;45.490;4.912;2023-01-28T15:36:26;13.98;;;7.47;;
40122;SDS011;25832;45.490;4.912;2023-01-28T15:38:53;13.90;;;7.60;;
40122;SDS011;25832;45.490;4.912;2023-01-28T15:41:20;14.40;;;7.38;;
40122;SDS011;25832;45.490;4.912;2023-01-28T15:43:49;15.43;;;7.03;;
40122;SDS011;25832;45.490;4.912;2023-01-28T15:46:16;19.00;;;8.98;;
40122;SDS011;25832;45.490;4.912;2023-01-28T15:48:44;16.80;;;9.07;;
40122;SDS011;25832;45.490;4.912;2023-01-28T15:51:25;15.93;;;8.68;;
40122;SDS011;25832;45.490;4.912;2023-01-28T15:53:59;11.38;;;6.15;;
40122;SDS011;25832;45.490;4.912;2023-01-28T15:56:28;12.10;;;7.32;;
40122;SDS011;25832;45.490;4.912;2023-01-28T15:58:55;13.27;;;7.32;;
40122;SDS011;25832;45.490;4.912;2023-01-28T16:01:31;13.98;;;7.57;;
40122;SDS011;25832;45.490;4.912;2023-01-28T16:04:01;15.23;;;8.00;;
40122;SDS011;25832;45.490;4.912;2023-01-28T16:06:33;13.70;;;7.80;;
40122;SDS011;25832;45.490;4.912;2023-01-28T16:09:02;16.45;;;7.93;;
40122;SDS011;25832;45.490;4.912;2023-01-28T16:11:36;15.20;;;7.90;;
40122;SDS011;25832;45.490;4.912;2023-01-28T16:16:51;12.75;;;7.43;;
40122;SDS011;25832;45.490;4.912;2023-01-28T16:19:29;19.33;;;7.93;;
40122;SDS011;25832;45.490;4.912;2023-01-28T16:22:03;14.15;;;6.70;;
40122;SDS011;25832;45.490;4.912;2023-01-28T16:24:31;12.35;;;7.47;;
40122;SDS011;25832;45.490;4.912;2023-01-28T16:27:17;13.48;;;7.85;;
40122;SDS011;25832;45.490;4.912;2023-01-28T16:29:45;14.15;;;7.93;;
40122;SDS011;25832;45.490;4.912;2023-01-28T16:32:27;12.10;;;6.78;;
40122;SDS011;25832;45.490;4.912;2023-01-28T16:34:56;16.40;;;7.93;;
40122;SDS011;25832;45.490;4.912;2023-01-28T16:37:22;12.88;;;7.28;;
40122;SDS011;25832;45.490;4.912;2023-01-28T16:39:48;15.77;;;9.20;;
40122;SDS011;25832;45.490;4.912;2023-01-28T16:42:14;12.52;;;7.05;;
40122;SDS011;25832;45.490;4.912;2023-01-28T16:44:39;13.60;;;7.85;;
40122;SDS011;25832;45.490;4.912;2023-01-28T16:47:06;12.48;;;6.70;;
40122;SDS011;25832;45.490;4.912;2023-01-28T16:49:32;14.60;;;8.45;;
40122;SDS011;25832;45.490;4.912;2023-01-28T16:51:58;12.48;;;7.55;;
40122;SDS011;25832;45.490;4.912;2023-01-28T16:54:24;19.15;;;9.90;;
40122;SDS011;25832;45.490;4.912;2023-01-28T16:56:50;17.50;;;9.57;;